Apache, Nevada
Current Conditions -  °F | °C
As of 12:56 AM on Sunday 23 Nov 2014 (Local Time) from KWMC Reporting Station
Clear Clear  
Wind Chill: 25°   Ceiling: Unl
Heat Index: 30°   Visibility: 10mi
Dew Point: 24°   Wind: 5mph
Humidity: 79%   Direction: NA
Pressure: 30.23"   Gusts: NA
Location:  40.601°N, 117.984°W
Report Text: KWMC 230856Z AUTO VRB04KT 10SM CLR M01/M04 A3023 RMK AO2 SLP247 T10111044 51018
Loading
Personal Weather Stations






























Interactive Weather Map New forecast layout! Learn more

10-Day Weather Forecast

Advertisements
Track Severe Weather on mobile